createdAt,value
2023-12-05T00:00:29.739Z,30.63
2023-12-05T00:02:56.287Z,30.85
2023-12-05T00:05:22.981Z,30.71
2023-12-05T00:07:49.625Z,30.85
2023-12-05T00:10:16.344Z,30.92
2023-12-05T00:12:43.384Z,31.06
2023-12-05T00:15:09.989Z,30.44
2023-12-05T00:17:36.679Z,30.84
2023-12-05T00:20:04.225Z,30.39
2023-12-05T00:22:30.783Z,30.77
2023-12-05T00:24:57.409Z,30.75
2023-12-05T00:27:24.086Z,30.85
2023-12-05T00:29:50.713Z,30.91
2023-12-05T00:32:17.318Z,30.80
2023-12-05T00:34:46.056Z,30.83
2023-12-05T00:37:12.974Z,30.34
2023-12-05T00:39:42.707Z,30.64
2023-12-05T00:42:09.327Z,31.00
2023-12-05T00:44:35.988Z,30.83
2023-12-05T00:47:05.983Z,30.69
2023-12-05T00:49:35.287Z,30.77
2023-12-05T00:52:02.194Z,30.66
2023-12-05T00:54:28.769Z,30.72
2023-12-05T00:56:56.247Z,30.59
2023-12-05T00:59:22.880Z,30.72
2023-12-05T01:01:49.554Z,30.82
2023-12-05T01:04:16.368Z,30.84
2023-12-05T01:06:44.020Z,30.80
2023-12-05T01:09:11.561Z,30.70
2023-12-05T01:11:38.425Z,30.84
2023-12-05T01:14:05.135Z,30.87
2023-12-05T01:16:31.731Z,31.05
2023-12-05T01:18:58.357Z,30.93
2023-12-05T01:21:25.079Z,30.89
2023-12-05T01:23:51.700Z,31.05
2023-12-05T01:26:24.398Z,31.00
2023-12-05T01:28:50.932Z,30.98
2023-12-05T01:31:17.499Z,31.04
2023-12-05T01:33:44.141Z,31.07
2023-12-05T01:36:11.536Z,31.14
2023-12-05T01:38:38.283Z,31.31
2023-12-05T01:41:05.082Z,31.08
2023-12-05T01:43:31.656Z,31.04
2023-12-05T01:45:58.301Z,31.12
2023-12-05T01:48:25.907Z,31.24
2023-12-05T01:50:53.138Z,31.25
2023-12-05T01:53:19.698Z,31.34
2023-12-05T01:55:46.284Z,31.20
2023-12-05T01:58:12.937Z,31.04
2023-12-05T02:00:39.590Z,31.08
2023-12-05T02:03:06.327Z,31.05
2023-12-05T02:05:33.381Z,31.06
2023-12-05T02:08:00.449Z,31.04
2023-12-05T02:10:27.083Z,31.06
2023-12-05T02:12:53.786Z,31.28
2023-12-05T02:15:20.442Z,31.13
2023-12-05T02:18:05.841Z,31.04
2023-12-05T02:20:41.567Z,31.08
2023-12-05T02:23:29.790Z,31.10
2023-12-05T02:26:08.149Z,31.17
2023-12-05T02:28:34.794Z,31.33
2023-12-05T02:31:01.440Z,31.28
2023-12-05T02:33:28.218Z,31.16
2023-12-05T02:36:01.867Z,31.14
2023-12-05T02:38:37.243Z,31.03
2023-12-05T02:41:14.181Z,31.09
2023-12-05T02:43:44.729Z,31.28
2023-12-05T02:46:11.637Z,31.12
2023-12-05T02:48:38.621Z,31.02
2023-12-05T02:51:05.680Z,31.21
2023-12-05T02:53:32.320Z,31.18
2023-12-05T02:55:58.876Z,31.20
2023-12-05T02:58:25.421Z,31.13
2023-12-05T03:00:52.087Z,31.15
2023-12-05T03:03:18.758Z,31.04
2023-12-05T03:05:45.442Z,31.04
2023-12-05T03:08:12.061Z,30.98
2023-12-05T03:10:38.589Z,31.08
2023-12-05T03:13:05.170Z,31.19
2023-12-05T03:15:31.770Z,31.04
2023-12-05T03:17:58.570Z,31.08
2023-12-05T03:20:25.725Z,30.88
2023-12-05T03:22:52.401Z,30.97
2023-12-05T03:25:19.234Z,31.18
2023-12-05T03:27:45.867Z,31.15
2023-12-05T03:30:12.794Z,31.34
2023-12-05T03:32:39.515Z,30.75
2023-12-05T03:35:06.501Z,31.22
2023-12-05T03:37:33.063Z,31.12
2023-12-05T03:39:59.604Z,31.12
2023-12-05T03:42:26.212Z,31.41
2023-12-05T03:44:52.803Z,31.11
2023-12-05T03:47:19.379Z,31.33
2023-12-05T03:49:46.101Z,31.28
2023-12-05T03:52:12.684Z,31.41
2023-12-05T03:54:39.327Z,31.37
2023-12-05T03:57:05.893Z,31.17
2023-12-05T03:59:32.635Z,31.10
2023-12-05T04:01:59.291Z,31.32
2023-12-05T04:04:26.073Z,31.16
2023-12-05T04:06:52.819Z,31.18
2023-12-05T04:09:19.492Z,31.19
2023-12-05T04:11:46.203Z,31.11
2023-12-05T04:14:12.824Z,31.50
2023-12-05T04:16:39.452Z,31.05
2023-12-05T04:19:06.125Z,31.20
2023-12-05T04:21:32.790Z,31.09
2023-12-05T04:24:01.009Z,31.08
2023-12-05T04:26:28.490Z,31.27
2023-12-05T04:28:56.706Z,31.28
2023-12-05T04:31:27.023Z,31.28
2023-12-05T04:33:53.612Z,31.33
2023-12-05T04:36:20.280Z,31.17
2023-12-05T04:38:46.872Z,31.14
2023-12-05T04:41:13.446Z,31.17
2023-12-05T04:43:40.011Z,31.07
2023-12-05T04:46:06.965Z,31.44
2023-12-05T04:48:33.686Z,31.21
2023-12-05T04:51:00.302Z,31.19
2023-12-05T04:53:26.820Z,31.28
2023-12-05T04:55:53.487Z,29.34
2023-12-05T04:58:20.070Z,28.75
2023-12-05T05:00:46.643Z,30.58
2023-12-05T05:03:13.444Z,30.66
2023-12-05T05:05:40.310Z,30.13
2023-12-05T05:08:06.876Z,29.93
2023-12-05T05:10:33.448Z,29.35
2023-12-05T05:13:00.606Z,29.87
2023-12-05T05:15:27.409Z,29.90
2023-12-05T05:17:54.108Z,30.20
2023-12-05T05:20:21.414Z,30.41
2023-12-05T05:22:48.861Z,30.05
2023-12-05T05:25:16.693Z,30.30
2023-12-05T05:27:43.776Z,30.36
2023-12-05T05:30:11.513Z,30.47
2023-12-05T05:32:38.236Z,30.80
2023-12-05T05:35:05.957Z,31.64
2023-12-05T05:37:32.614Z,31.16
2023-12-05T05:39:59.311Z,31.10
2023-12-05T05:42:25.947Z,30.69
2023-12-05T05:44:52.591Z,30.50
2023-12-05T05:47:19.217Z,30.63
2023-12-05T05:49:47.456Z,30.54
2023-12-05T05:52:14.061Z,30.48
2023-12-05T05:54:40.669Z,30.50
2023-12-05T05:57:07.726Z,30.59
2023-12-05T05:59:34.311Z,30.76
2023-12-05T06:02:00.953Z,30.72
2023-12-05T06:04:27.745Z,31.11
2023-12-05T06:06:54.386Z,30.83
2023-12-05T06:09:20.985Z,30.78
2023-12-05T06:11:47.597Z,30.55
2023-12-05T06:14:14.184Z,30.88
2023-12-05T06:16:40.855Z,30.84
2023-12-05T06:19:07.459Z,30.81
2023-12-05T06:21:34.032Z,30.86
2023-12-05T06:24:01.557Z,30.66
2023-12-05T06:26:29.145Z,30.91
2023-12-05T06:28:55.725Z,31.00
2023-12-05T06:31:22.379Z,30.68
2023-12-05T06:33:49.133Z,30.93
2023-12-05T06:36:17.429Z,30.99
2023-12-05T06:38:44.060Z,31.14
2023-12-05T06:41:10.622Z,30.98
2023-12-05T06:43:37.260Z,31.00
2023-12-05T06:46:03.986Z,30.94
2023-12-05T06:48:30.672Z,31.30
2023-12-05T06:50:57.291Z,31.05
2023-12-05T06:53:23.826Z,31.09
2023-12-05T06:55:50.445Z,30.90
2023-12-05T06:58:17.118Z,30.88
2023-12-05T07:00:43.779Z,31.11
2023-12-05T07:03:10.405Z,31.06
2023-12-05T07:05:37.216Z,30.88
2023-12-05T07:08:04.841Z,31.00
2023-12-05T07:10:33.044Z,30.80
2023-12-05T07:12:59.692Z,31.02
2023-12-05T07:15:26.427Z,30.67
2023-12-05T07:17:53.042Z,30.91
2023-12-05T07:20:19.773Z,30.89
2023-12-05T07:22:46.349Z,30.84
2023-12-05T07:25:12.919Z,31.04
2023-12-05T07:27:40.477Z,30.85
2023-12-05T07:30:09.432Z,30.76
2023-12-05T07:32:36.065Z,30.88
2023-12-05T07:35:03.193Z,30.78
2023-12-05T07:37:29.855Z,31.01
2023-12-05T07:39:56.601Z,30.81
2023-12-05T07:42:24.040Z,30.79
2023-12-05T07:44:50.758Z,31.01
2023-12-05T07:47:17.470Z,30.84
2023-12-05T07:49:47.229Z,31.03
2023-12-05T07:52:13.902Z,30.84
2023-12-05T07:54:40.636Z,30.61
2023-12-05T07:57:07.453Z,30.82
2023-12-05T07:59:34.032Z,30.99
2023-12-05T08:02:00.726Z,30.69
2023-12-05T08:04:27.589Z,30.81
2023-12-05T08:06:54.367Z,30.83
2023-12-05T08:09:21.164Z,30.71
2023-12-05T08:11:47.728Z,30.82
2023-12-05T08:14:14.434Z,30.78
2023-12-05T08:16:43.093Z,30.82
2023-12-05T08:19:09.839Z,30.80
2023-12-05T08:21:36.646Z,30.92
2023-12-05T08:24:03.466Z,30.73
2023-12-05T08:26:31.097Z,30.69
2023-12-05T08:28:57.780Z,30.73
2023-12-05T08:31:24.387Z,30.80
2023-12-05T08:33:51.207Z,30.88
2023-12-05T08:36:17.919Z,31.14
2023-12-05T08:38:45.152Z,30.79
2023-12-05T08:41:19.470Z,30.62
2023-12-05T08:43:49.148Z,30.75
2023-12-05T08:46:16.216Z,30.72
2023-12-05T08:48:43.078Z,31.00
2023-12-05T08:51:10.098Z,30.65
2023-12-05T08:53:36.748Z,30.90
2023-12-05T08:56:05.387Z,31.02
2023-12-05T08:58:32.102Z,31.06
2023-12-05T09:00:58.780Z,31.00
2023-12-05T09:03:25.630Z,30.85
2023-12-05T09:05:52.404Z,30.95
2023-12-05T09:08:19.288Z,30.88
2023-12-05T09:10:46.932Z,30.91
2023-12-05T09:13:13.942Z,30.72
2023-12-05T09:15:40.932Z,30.85
2023-12-05T09:18:08.791Z,31.03
2023-12-05T09:20:35.584Z,31.06
2023-12-05T09:23:02.597Z,30.95
2023-12-05T09:25:29.283Z,31.15
2023-12-05T09:27:55.907Z,30.99
2023-12-05T09:30:22.699Z,30.33
2023-12-05T09:32:49.414Z,28.21
2023-12-05T09:35:16.051Z,28.64
2023-12-05T09:37:42.763Z,28.88
2023-12-05T09:40:10.183Z,29.01
2023-12-05T09:42:37.305Z,29.06
2023-12-05T09:45:04.496Z,29.82
2023-12-05T09:47:31.141Z,29.56
2023-12-05T09:49:57.966Z,29.59
2023-12-05T09:52:24.690Z,29.45
2023-12-05T09:54:56.641Z,29.22
2023-12-05T09:57:23.334Z,29.60
2023-12-05T09:59:50.039Z,29.48
2023-12-05T10:02:17.422Z,29.35
2023-12-05T10:04:45.434Z,29.33
2023-12-05T10:07:12.885Z,29.67
2023-12-05T10:09:43.412Z,29.45
2023-12-05T10:12:10.714Z,29.65
2023-12-05T10:14:38.501Z,30.13
2023-12-05T10:17:05.635Z,29.93
2023-12-05T10:19:33.602Z,30.02
2023-12-05T10:22:00.472Z,29.87
2023-12-05T10:24:47.977Z,29.77
2023-12-05T10:27:16.238Z,29.95
2023-12-05T10:29:43.132Z,30.06
2023-12-05T10:32:11.034Z,30.54
2023-12-05T10:34:51.181Z,30.09
2023-12-05T10:37:28.066Z,29.93
2023-12-05T10:39:55.897Z,30.34
2023-12-05T10:42:26.690Z,30.16
2023-12-05T10:44:53.374Z,30.14
2023-12-05T10:47:20.561Z,30.43
2023-12-05T10:49:48.979Z,30.42
2023-12-05T10:52:15.988Z,30.30
2023-12-05T10:54:43.141Z,30.13
2023-12-05T10:57:12.715Z,30.57
2023-12-05T10:59:39.778Z,30.38
2023-12-05T11:02:14.304Z,30.54
2023-12-05T11:04:42.513Z,30.10
2023-12-05T11:07:12.703Z,30.43
2023-12-05T11:09:43.256Z,30.21
2023-12-05T11:12:10.279Z,30.43
2023-12-05T11:14:44.348Z,30.20
2023-12-05T11:17:13.594Z,30.18
2023-12-05T11:20:00.069Z,30.07
2023-12-05T11:22:41.608Z,30.23
2023-12-05T11:25:46.120Z,30.21
2023-12-05T11:28:27.017Z,30.16
2023-12-05T11:30:59.690Z,30.49
2023-12-05T11:33:52.389Z,30.06
2023-12-05T11:36:23.282Z,29.96
2023-12-05T11:38:49.912Z,30.34
2023-12-05T11:41:21.130Z,30.60
2023-12-05T11:44:12.694Z,30.49
2023-12-05T11:46:45.489Z,30.40
2023-12-05T11:49:12.281Z,30.32
2023-12-05T11:51:39.114Z,30.63
2023-12-05T11:54:08.932Z,30.45
2023-12-05T11:56:35.656Z,30.29
2023-12-05T11:59:17.603Z,30.40
2023-12-05T12:01:44.640Z,30.69
2023-12-05T12:04:21.407Z,30.64
2023-12-05T12:06:48.403Z,30.52
2023-12-05T12:09:15.028Z,30.75
2023-12-05T12:11:42.311Z,30.22
2023-12-05T12:14:19.168Z,28.72
2023-12-05T12:16:49.508Z,28.44
2023-12-05T12:19:17.587Z,28.68
2023-12-05T12:21:44.372Z,28.80
2023-12-05T12:24:21.694Z,28.79
2023-12-05T12:27:08.178Z,28.87
2023-12-05T12:29:35.244Z,29.00
2023-12-05T12:32:10.307Z,29.02
2023-12-05T12:34:37.200Z,29.07
2023-12-05T12:37:13.860Z,29.14
2023-12-05T12:39:45.167Z,29.23
2023-12-05T12:42:12.367Z,29.00
2023-12-05T12:44:39.361Z,29.48
2023-12-05T12:47:06.738Z,29.18
2023-12-05T12:49:34.449Z,29.29
2023-12-05T12:52:01.101Z,29.42
2023-12-05T12:54:27.823Z,29.43
2023-12-05T12:56:55.508Z,29.55
2023-12-05T12:59:22.157Z,29.44
2023-12-05T13:01:50.539Z,29.72
2023-12-05T13:04:17.552Z,29.96
2023-12-05T13:06:48.379Z,30.00
2023-12-05T13:09:24.366Z,30.81
2023-12-05T13:11:51.333Z,31.15
2023-12-05T13:14:18.477Z,30.23
2023-12-05T13:16:45.862Z,29.96
2023-12-05T13:19:30.662Z,30.18
2023-12-05T13:21:58.025Z,30.11
2023-12-05T13:24:24.792Z,29.89
2023-12-05T13:26:52.976Z,29.87
2023-12-05T13:29:20.210Z,29.85
2023-12-05T13:31:47.044Z,29.95
2023-12-05T13:34:13.832Z,30.22
2023-12-05T13:36:40.543Z,30.16
2023-12-05T13:39:11.824Z,30.35
2023-12-05T13:41:40.003Z,29.87
2023-12-05T13:44:06.624Z,29.97
2023-12-05T13:46:33.367Z,30.21
2023-12-05T13:49:05.806Z,30.30
2023-12-05T13:51:33.401Z,30.28
2023-12-05T13:54:01.377Z,30.19
2023-12-05T13:56:28.538Z,30.29
2023-12-05T13:58:56.478Z,30.59
2023-12-05T14:01:23.268Z,30.80
2023-12-05T14:03:50.192Z,30.66
2023-12-05T14:06:17.060Z,30.83
2023-12-05T14:08:43.809Z,30.55
2023-12-05T14:11:10.445Z,31.71
2023-12-05T14:13:37.219Z,33.72
2023-12-05T14:16:05.277Z,34.80
2023-12-05T14:18:32.158Z,36.13
2023-12-05T14:21:01.272Z,33.58
2023-12-05T14:23:28.607Z,33.44
2023-12-05T14:25:58.246Z,35.26
2023-12-05T14:28:24.894Z,35.91
2023-12-05T14:30:51.782Z,34.68
2023-12-05T14:33:18.718Z,33.85
2023-12-05T14:35:45.443Z,33.48
2023-12-05T14:38:16.627Z,32.96
2023-12-05T14:40:44.221Z,32.61
2023-12-05T14:43:11.507Z,32.30
2023-12-05T14:45:38.396Z,32.39
2023-12-05T14:48:05.762Z,32.24
2023-12-05T14:50:32.461Z,31.97
2023-12-05T14:52:59.190Z,31.90
2023-12-05T14:55:25.899Z,31.93
2023-12-05T14:57:56.260Z,31.74
2023-12-05T15:00:23.706Z,31.45
2023-12-05T15:02:50.563Z,31.65
2023-12-05T15:05:17.925Z,31.38
2023-12-05T15:07:44.788Z,31.42
2023-12-05T15:10:11.684Z,31.45
2023-12-05T15:12:38.603Z,31.16
2023-12-05T15:15:06.787Z,31.23
2023-12-05T15:17:33.653Z,31.46
2023-12-05T15:20:19.035Z,31.36
2023-12-05T15:22:47.232Z,30.72
2023-12-05T15:25:13.920Z,29.81
2023-12-05T15:27:40.994Z,28.03
2023-12-05T15:30:09.695Z,27.86
2023-12-05T15:32:37.094Z,28.17
2023-12-05T15:35:04.144Z,28.25
2023-12-05T15:37:32.087Z,28.57
2023-12-05T15:39:59.266Z,28.52
2023-12-05T15:42:26.136Z,28.81
2023-12-05T15:44:54.468Z,28.94
2023-12-05T15:47:21.343Z,29.01
2023-12-05T15:49:48.533Z,28.92
2023-12-05T15:52:15.269Z,29.05
2023-12-05T15:54:41.995Z,29.47
2023-12-05T15:57:08.704Z,29.75
2023-12-05T15:59:35.514Z,29.67
2023-12-05T16:02:02.376Z,29.95
2023-12-05T16:04:29.121Z,29.83
2023-12-05T16:06:55.783Z,29.98
2023-12-05T16:09:24.642Z,30.00
2023-12-05T16:11:52.909Z,30.13
2023-12-05T16:14:22.297Z,30.08
2023-12-05T16:16:49.067Z,30.29
2023-12-05T16:19:16.023Z,31.71
2023-12-05T16:21:42.783Z,31.29
2023-12-05T16:24:09.467Z,30.84
2023-12-05T16:26:39.082Z,30.73
2023-12-05T16:29:06.166Z,30.63
2023-12-05T16:31:32.846Z,30.67
2023-12-05T16:34:00.189Z,30.73
2023-12-05T16:36:30.805Z,30.92
2023-12-05T16:38:57.918Z,30.59
2023-12-05T16:41:31.130Z,30.33
2023-12-05T16:43:57.893Z,30.34
2023-12-05T16:46:25.309Z,30.49
2023-12-05T16:48:52.595Z,30.21
2023-12-05T16:51:19.464Z,30.38
2023-12-05T16:53:46.147Z,30.13
2023-12-05T16:56:13.705Z,30.31
2023-12-05T16:58:40.559Z,30.41
2023-12-05T17:01:08.516Z,30.00
2023-12-05T17:03:35.675Z,29.92
2023-12-05T17:06:02.819Z,30.15
2023-12-05T17:08:29.632Z,30.03
2023-12-05T17:10:56.487Z,30.09
2023-12-05T17:13:23.202Z,30.10
2023-12-05T17:15:49.993Z,30.12
2023-12-05T17:18:16.890Z,30.39
2023-12-05T17:20:43.513Z,30.08
2023-12-05T17:23:10.151Z,30.08
2023-12-05T17:25:36.834Z,30.38
2023-12-05T17:28:04.212Z,30.24
2023-12-05T17:30:31.040Z,30.16
2023-12-05T17:33:01.592Z,30.13
2023-12-05T17:35:28.347Z,30.24
2023-12-05T17:37:55.160Z,30.11
2023-12-05T17:40:21.924Z,29.89
2023-12-05T17:42:49.431Z,29.91
2023-12-05T17:45:16.465Z,29.72
2023-12-05T17:47:43.337Z,30.10
2023-12-05T17:50:10.815Z,29.76
2023-12-05T17:52:37.529Z,29.83
2023-12-05T17:55:04.735Z,29.98
2023-12-05T17:57:32.021Z,29.93
2023-12-05T17:59:58.987Z,30.09
2023-12-05T18:02:25.745Z,29.92
2023-12-05T18:04:52.560Z,29.79
2023-12-05T18:07:51.935Z,29.77
2023-12-05T18:10:06.333Z,29.69
2023-12-05T18:12:33.149Z,30.10
2023-12-05T18:15:00.962Z,29.89
2023-12-05T18:17:27.841Z,29.81
2023-12-05T18:19:54.731Z,29.96
2023-12-05T18:22:21.560Z,29.83
2023-12-05T18:24:49.431Z,30.04
2023-12-05T18:27:16.264Z,29.82
2023-12-05T18:29:45.546Z,29.90
2023-12-05T18:32:12.453Z,30.21
2023-12-05T18:34:39.506Z,30.14
2023-12-05T18:37:06.438Z,30.19
2023-12-05T18:39:33.960Z,30.72
2023-12-05T18:42:00.911Z,30.32
2023-12-05T18:44:27.683Z,30.50
2023-12-05T18:46:54.490Z,30.45
2023-12-05T18:49:21.879Z,30.35
2023-12-05T18:51:49.272Z,30.53
2023-12-05T18:54:16.108Z,30.62
2023-12-05T18:56:46.384Z,30.75
2023-12-05T18:59:14.620Z,30.58
2023-12-05T19:01:45.310Z,30.49
2023-12-05T19:04:36.983Z,30.66
2023-12-05T19:07:04.101Z,30.49
2023-12-05T19:09:30.959Z,29.73
2023-12-05T19:11:59.500Z,29.97
2023-12-05T19:14:30.362Z,29.21
2023-12-05T19:19:55.071Z,28.82
2023-12-05T19:22:22.153Z,29.05
2023-12-05T19:24:49.157Z,29.25
2023-12-05T19:27:16.060Z,28.50
2023-12-05T19:29:43.436Z,26.90
2023-12-05T19:32:10.164Z,27.27
2023-12-05T19:34:42.762Z,27.74
2023-12-05T19:37:11.066Z,28.06
2023-12-05T19:39:40.142Z,27.76
2023-12-05T19:42:07.311Z,28.11
2023-12-05T19:44:34.279Z,28.15
2023-12-05T19:47:01.076Z,28.44
2023-12-05T19:49:28.017Z,28.64
2023-12-05T19:51:55.482Z,29.89
2023-12-05T19:54:28.251Z,29.95
2023-12-05T19:56:55.430Z,29.64
2023-12-05T19:59:23.006Z,29.29
2023-12-05T20:05:00.766Z,29.43
2023-12-05T20:07:27.599Z,29.55
2023-12-05T20:10:04.678Z,29.38
2023-12-05T20:12:31.675Z,29.67
2023-12-05T20:14:58.535Z,29.63
2023-12-05T20:17:28.840Z,29.67
2023-12-05T20:19:56.232Z,29.41
2023-12-05T20:22:25.835Z,29.85
2023-12-05T20:24:52.659Z,29.54
2023-12-05T20:27:20.209Z,29.59
2023-12-05T20:29:47.365Z,29.66
2023-12-05T20:32:14.157Z,29.60
2023-12-05T20:34:41.583Z,29.51
2023-12-05T20:37:08.557Z,29.75
2023-12-05T20:39:36.706Z,29.55
2023-12-05T20:46:03.297Z,29.76
2023-12-05T20:48:30.090Z,29.75
2023-12-05T20:50:57.241Z,29.79
2023-12-05T20:53:23.976Z,29.63
2023-12-05T20:55:56.032Z,29.76
2023-12-05T20:58:26.314Z,29.60
2023-12-05T21:00:53.112Z,29.78
2023-12-05T21:03:19.938Z,29.92
2023-12-05T21:05:46.945Z,29.97
2023-12-05T21:08:14.699Z,29.75
2023-12-05T21:10:41.728Z,30.31
2023-12-05T21:13:08.545Z,30.35
2023-12-05T21:15:35.384Z,30.19
2023-12-05T21:18:03.372Z,30.65
2023-12-05T21:20:30.127Z,30.68
2023-12-05T21:22:57.456Z,30.69
2023-12-05T21:25:24.175Z,30.73
2023-12-05T21:27:51.218Z,31.00
2023-12-05T21:30:18.533Z,30.83
2023-12-05T21:32:45.308Z,31.03
2023-12-05T21:35:13.347Z,30.96
2023-12-05T21:37:44.478Z,30.82
2023-12-05T21:40:13.213Z,30.89
2023-12-05T21:42:40.085Z,31.08
2023-12-05T21:45:07.343Z,29.22
2023-12-05T21:47:34.204Z,28.65
2023-12-05T21:50:01.034Z,28.61
2023-12-05T21:52:27.798Z,28.38
2023-12-05T21:54:54.575Z,29.05
2023-12-05T21:57:21.913Z,28.92
2023-12-05T21:59:48.804Z,29.53
2023-12-05T22:02:15.592Z,29.13
2023-12-05T22:04:42.477Z,29.10
2023-12-05T22:07:09.325Z,28.99
2023-12-05T22:09:36.121Z,29.06
2023-12-05T22:12:02.989Z,29.24
2023-12-05T22:14:29.701Z,29.19
2023-12-05T22:16:56.745Z,29.11
2023-12-05T22:19:23.566Z,29.42
2023-12-05T22:21:50.327Z,29.28
2023-12-05T22:24:25.219Z,29.49
2023-12-05T22:26:58.802Z,29.45
2023-12-05T22:29:25.521Z,29.59
2023-12-05T22:31:52.771Z,29.56
2023-12-05T22:34:19.590Z,29.44
2023-12-05T22:36:46.409Z,29.68
2023-12-05T22:39:13.159Z,29.76
2023-12-05T22:41:45.882Z,29.52
2023-12-05T22:44:12.591Z,29.60
2023-12-05T22:46:39.420Z,29.63
2023-12-05T22:49:06.718Z,29.77
2023-12-05T22:51:33.623Z,29.86
2023-12-05T22:54:00.368Z,29.71
2023-12-05T22:56:26.994Z,29.75
2023-12-05T22:58:53.667Z,29.80
2023-12-05T23:01:20.440Z,29.95
2023-12-05T23:03:48.040Z,29.91
2023-12-05T23:06:14.849Z,29.74
2023-12-05T23:08:41.831Z,29.93
2023-12-05T23:11:08.456Z,29.88
2023-12-05T23:13:35.122Z,30.11
2023-12-05T23:16:01.727Z,29.98
2023-12-05T23:18:28.652Z,30.09
2023-12-05T23:20:56.043Z,30.24
2023-12-05T23:23:22.682Z,29.79
2023-12-05T23:25:49.366Z,30.01
2023-12-05T23:28:22.066Z,29.92
2023-12-05T23:30:51.321Z,30.20
2023-12-05T23:33:18.006Z,30.13
2023-12-05T23:35:44.601Z,30.07
2023-12-05T23:38:11.321Z,30.47
2023-12-05T23:40:37.894Z,30.33
2023-12-05T23:43:04.571Z,30.62
2023-12-05T23:45:31.371Z,30.19
2023-12-05T23:47:58.113Z,30.52
2023-12-05T23:50:24.788Z,30.50
2023-12-05T23:52:51.382Z,30.40
2023-12-05T23:55:18.034Z,30.27
2023-12-05T23:57:44.742Z,30.25
